createdAt,value
2022-07-25T00:00:25.438Z,95.13
2022-07-25T00:01:31.158Z,94.63
2022-07-25T00:02:35.529Z,94.24
2022-07-25T00:03:39.668Z,95.15
2022-07-25T00:04:44.468Z,94.24
2022-07-25T00:05:48.591Z,94.24
2022-07-25T00:07:00.832Z,94.32
2022-07-25T00:08:06.638Z,93.87
2022-07-25T00:09:13.799Z,93.90
2022-07-25T00:10:21.696Z,94.20
2022-07-25T00:11:31.967Z,93.93
2022-07-25T00:13:45.337Z,93.20
2022-07-25T00:13:54.305Z,93.32
2022-07-25T00:15:14.962Z,92.82
2022-07-25T00:16:28.297Z,92.86
2022-07-25T00:17:38.648Z,92.86
2022-07-25T00:18:41.691Z,92.66
2022-07-25T00:19:59.377Z,93.19
2022-07-25T00:21:05.313Z,93.19
2022-07-25T00:22:13.543Z,92.20
2022-07-25T00:23:19.370Z,91.95
2022-07-25T00:24:38.724Z,91.82
2022-07-25T00:25:43.908Z,92.46
2022-07-25T00:26:49.564Z,92.79
2022-07-25T00:27:56.431Z,92.79
2022-07-25T00:29:03.955Z,92.64
2022-07-25T00:30:08.397Z,93.07
2022-07-25T00:31:12.402Z,93.07
2022-07-25T00:32:16.652Z,93.27
2022-07-25T00:33:22.129Z,93.62
2022-07-25T00:34:26.140Z,92.93
2022-07-25T00:35:30.060Z,92.63
2022-07-25T00:36:35.518Z,92.63
2022-07-25T00:37:39.510Z,92.88
2022-07-25T00:38:43.480Z,93.11
2022-07-25T00:39:47.480Z,93.10
2022-07-25T00:40:54.225Z,92.96
2022-07-25T00:41:57.531Z,93.16
2022-07-25T00:43:01.661Z,93.10
2022-07-25T00:44:06.444Z,93.41
2022-07-25T00:45:10.831Z,93.41
2022-07-25T00:46:20.647Z,93.41
2022-07-25T00:47:24.338Z,92.66
2022-07-25T00:48:31.344Z,93.39
2022-07-25T00:49:35.574Z,93.33
2022-07-25T00:50:39.728Z,93.26
2022-07-25T00:51:44.668Z,93.77
2022-07-25T00:52:49.076Z,93.65
2022-07-25T00:53:53.102Z,93.65
2022-07-25T00:54:57.230Z,92.95
2022-07-25T00:56:01.625Z,92.90
2022-07-25T00:57:05.669Z,92.44
2022-07-25T00:58:09.835Z,92.76
2022-07-25T00:59:15.465Z,92.17
2022-07-25T01:00:22.045Z,91.97
2022-07-25T01:01:26.257Z,91.97
2022-07-25T01:02:30.608Z,93.07
2022-07-25T01:03:34.876Z,92.82
2022-07-25T01:04:38.993Z,92.35
2022-07-25T01:05:44.782Z,91.87
2022-07-25T01:06:49.001Z,92.05
2022-07-25T01:07:57.083Z,92.05
2022-07-25T01:09:03.199Z,91.70
2022-07-25T01:10:08.758Z,91.54
2022-07-25T01:11:13.215Z,91.80
2022-07-25T01:12:17.414Z,91.80
2022-07-25T01:13:23.076Z,91.70
2022-07-25T01:14:31.216Z,91.69
2022-07-25T01:15:35.337Z,91.58
2022-07-25T01:16:39.524Z,91.67
2022-07-25T01:17:43.642Z,91.31
2022-07-25T01:18:47.619Z,90.98
2022-07-25T01:19:53.094Z,90.98
2022-07-25T01:20:57.182Z,91.81
2022-07-25T01:22:01.641Z,91.96
2022-07-25T01:23:05.774Z,91.02
2022-07-25T01:24:10.702Z,91.05
2022-07-25T01:25:16.130Z,91.31
2022-07-25T01:26:21.780Z,91.28
2022-07-25T01:27:25.757Z,91.33
2022-07-25T01:28:29.839Z,91.28
2022-07-25T01:29:34.005Z,91.28
2022-07-25T01:30:41.390Z,91.77
2022-07-25T01:31:46.873Z,91.54
2022-07-25T01:32:57.512Z,91.54
2022-07-25T01:34:20.233Z,91.27
2022-07-25T01:35:24.368Z,91.51
2022-07-25T01:36:30.955Z,92.16
2022-07-25T01:37:37.920Z,91.61
2022-07-25T01:38:44.616Z,91.38
2022-07-25T01:39:48.606Z,91.60
2022-07-25T01:40:52.710Z,91.44
2022-07-25T01:41:56.737Z,91.44
2022-07-25T01:43:07.431Z,91.56
2022-07-25T01:44:11.366Z,92.75
2022-07-25T01:45:18.705Z,92.29
2022-07-25T01:46:24.800Z,92.27
2022-07-25T01:47:32.418Z,92.34
2022-07-25T01:48:36.182Z,91.32
2022-07-25T01:49:40.396Z,92.42
2022-07-25T01:50:44.420Z,92.02
2022-07-25T01:51:48.768Z,91.87
2022-07-25T01:52:54.976Z,92.68
2022-07-25T01:53:58.719Z,92.29
2022-07-25T01:55:06.857Z,92.29
2022-07-25T01:56:11.026Z,92.03
2022-07-25T01:57:16.567Z,91.66
2022-07-25T01:58:20.805Z,92.01
2022-07-25T01:59:28.092Z,91.15
2022-07-25T02:00:32.093Z,91.69
2022-07-25T02:01:37.334Z,91.71
2022-07-25T02:02:43.626Z,91.71
2022-07-25T02:03:47.721Z,91.11
2022-07-25T02:04:51.715Z,91.11
2022-07-25T02:05:55.993Z,91.34
2022-07-25T02:07:00.334Z,91.70
2022-07-25T02:08:04.492Z,91.70
2022-07-25T02:09:09.767Z,91.49
2022-07-25T02:10:15.077Z,91.22
2022-07-25T02:11:19.071Z,91.07
2022-07-25T02:12:23.151Z,91.43
2022-07-25T02:13:29.168Z,91.43
2022-07-25T02:14:35.031Z,91.53
2022-07-25T02:15:40.749Z,91.53
2022-07-25T02:16:47.942Z,91.13
2022-07-25T02:18:02.807Z,91.13
2022-07-25T02:18:57.889Z,91.28
2022-07-25T02:20:01.921Z,91.51
2022-07-25T02:21:05.957Z,91.28
2022-07-25T02:22:11.757Z,91.28
2022-07-25T02:23:15.893Z,91.37
2022-07-25T02:24:20.029Z,91.37
2022-07-25T02:25:27.731Z,91.67
2022-07-25T02:26:29.853Z,91.81
2022-07-25T02:27:33.886Z,91.81
2022-07-25T02:28:45.522Z,92.07
2022-07-25T02:30:41.944Z,92.07
2022-07-25T02:30:59.847Z,91.57
2022-07-25T02:32:04.241Z,91.67
2022-07-25T02:33:08.388Z,91.41
2022-07-25T02:34:12.514Z,91.96
2022-07-25T02:35:16.392Z,91.56
2022-07-25T02:36:20.515Z,91.56
2022-07-25T02:37:24.701Z,91.59
2022-07-25T02:38:28.760Z,91.59
2022-07-25T02:39:32.803Z,91.93
2022-07-25T02:40:37.165Z,91.93
2022-07-25T02:41:41.289Z,91.82
2022-07-25T02:42:45.249Z,91.35
2022-07-25T02:43:50.100Z,91.91
2022-07-25T02:44:54.046Z,91.70
2022-07-25T02:45:57.994Z,91.18
2022-07-25T02:47:01.981Z,91.18
2022-07-25T02:48:06.162Z,90.96
2022-07-25T02:49:10.363Z,91.10
2022-07-25T02:50:15.157Z,91.49
2022-07-25T02:51:21.466Z,91.43
2022-07-25T02:52:27.909Z,91.63
2022-07-25T02:53:55.601Z,91.13
2022-07-25T02:54:37.512Z,91.47
2022-07-25T02:55:41.538Z,91.47
2022-07-25T02:56:45.499Z,90.99
2022-07-25T02:57:51.609Z,90.94
2022-07-25T02:58:55.289Z,91.02
2022-07-25T02:59:59.442Z,91.15
2022-07-25T03:01:03.602Z,91.20
2022-07-25T03:02:07.709Z,91.20
2022-07-25T03:03:11.673Z,90.84
2022-07-25T03:04:16.209Z,90.84
2022-07-25T03:05:21.218Z,90.94
2022-07-25T03:06:29.141Z,90.48
2022-07-25T03:07:33.119Z,90.01
2022-07-25T03:08:37.237Z,90.37
2022-07-25T03:09:41.486Z,90.55
2022-07-25T03:10:47.663Z,90.39
2022-07-25T03:11:51.771Z,90.71
2022-07-25T03:12:57.519Z,90.81
2022-07-25T03:14:02.038Z,90.93
2022-07-25T03:15:07.683Z,90.91
2022-07-25T03:16:11.855Z,90.50
2022-07-25T03:17:15.994Z,90.19
2022-07-25T03:18:20.041Z,90.40
2022-07-25T03:19:24.044Z,90.67
2022-07-25T03:20:29.738Z,90.81
2022-07-25T03:21:33.822Z,90.63
2022-07-25T03:22:38.196Z,90.94
2022-07-25T03:23:42.387Z,91.27
2022-07-25T03:24:46.437Z,91.30
2022-07-25T03:25:52.453Z,91.30
2022-07-25T03:26:58.152Z,91.34
2022-07-25T03:28:01.832Z,91.29
2022-07-25T03:29:05.850Z,90.74
2022-07-25T03:30:10.630Z,90.92
2022-07-25T03:31:14.701Z,90.92
2022-07-25T03:32:18.686Z,91.11
2022-07-25T03:33:23.160Z,91.39
2022-07-25T03:34:27.282Z,91.56
2022-07-25T03:35:31.383Z,91.10
2022-07-25T03:36:35.456Z,91.43
2022-07-25T03:37:39.438Z,91.43
2022-07-25T03:38:43.584Z,91.16
2022-07-25T03:39:47.688Z,91.37
2022-07-25T03:40:53.304Z,91.37
2022-07-25T03:41:57.424Z,90.72
2022-07-25T03:43:01.403Z,90.81
2022-07-25T03:44:05.962Z,91.40
2022-07-25T03:45:10.834Z,91.02
2022-07-25T03:46:15.229Z,91.54
2022-07-25T03:47:28.502Z,91.54
2022-07-25T03:48:37.507Z,91.03
2022-07-25T03:49:42.833Z,91.27
2022-07-25T03:50:48.353Z,91.27
2022-07-25T03:52:17.237Z,91.72
2022-07-25T03:53:52.376Z,90.94
2022-07-25T03:54:34.395Z,91.34
2022-07-25T03:55:38.976Z,91.34
2022-07-25T03:56:50.821Z,90.91
2022-07-25T03:57:56.201Z,90.91
2022-07-25T03:59:00.302Z,90.96
2022-07-25T04:00:07.032Z,91.03
2022-07-25T04:01:12.737Z,91.03
2022-07-25T04:02:16.919Z,90.94
2022-07-25T04:03:25.953Z,90.93
2022-07-25T04:04:26.994Z,90.54
2022-07-25T04:05:31.130Z,90.12
2022-07-25T04:06:37.430Z,90.38
2022-07-25T04:07:41.568Z,90.38
2022-07-25T04:08:45.904Z,90.69
2022-07-25T04:09:49.934Z,91.16
2022-07-25T04:10:54.119Z,90.69
2022-07-25T04:11:58.570Z,90.69
2022-07-25T04:13:04.219Z,90.86
2022-07-25T04:14:10.265Z,90.38
2022-07-25T04:15:14.643Z,90.38
2022-07-25T04:16:22.932Z,90.33
2022-07-25T04:17:28.177Z,90.11
2022-07-25T04:18:32.295Z,90.11
2022-07-25T04:19:37.905Z,89.89
2022-07-25T04:20:41.916Z,89.79
2022-07-25T04:21:47.611Z,89.61
2022-07-25T04:22:51.558Z,89.54
2022-07-25T04:23:55.666Z,89.54
2022-07-25T04:25:02.476Z,89.78
2022-07-25T04:26:06.498Z,89.72
2022-07-25T04:27:10.528Z,89.42
2022-07-25T04:28:14.634Z,88.11
2022-07-25T04:29:18.596Z,88.34
2022-07-25T04:30:24.558Z,89.46
2022-07-25T04:31:28.289Z,89.33
2022-07-25T04:32:32.408Z,89.39
2022-07-25T04:33:40.333Z,89.39
2022-07-25T04:34:44.319Z,89.08
2022-07-25T04:35:49.021Z,89.30
2022-07-25T04:36:54.550Z,88.75
2022-07-25T04:37:58.602Z,88.83
2022-07-25T04:39:02.567Z,88.48
2022-07-25T04:40:07.106Z,88.48
2022-07-25T04:41:12.669Z,88.26
2022-07-25T04:42:16.803Z,88.92
2022-07-25T04:43:21.303Z,88.49
2022-07-25T04:44:30.486Z,88.49
2022-07-25T04:45:31.686Z,87.98
2022-07-25T04:46:35.823Z,88.03
2022-07-25T04:47:39.790Z,87.55
2022-07-25T04:48:43.889Z,87.32
2022-07-25T04:49:49.639Z,87.32
2022-07-25T04:50:53.653Z,86.65
2022-07-25T04:51:57.677Z,86.65
2022-07-25T04:53:01.764Z,87.71
2022-07-25T04:54:06.505Z,87.85
2022-07-25T04:55:11.504Z,87.47
2022-07-25T04:56:16.127Z,87.17
2022-07-25T04:57:20.145Z,86.73
2022-07-25T04:58:24.096Z,87.08
2022-07-25T04:59:28.116Z,86.70
2022-07-25T05:00:33.025Z,87.10
2022-07-25T05:01:37.329Z,86.46
2022-07-25T05:02:42.018Z,86.47
2022-07-25T05:03:50.625Z,86.44
2022-07-25T05:04:52.281Z,86.06
2022-07-25T05:05:56.827Z,85.69
2022-07-25T05:07:00.858Z,85.51
2022-07-25T05:08:05.057Z,85.06
2022-07-25T05:09:09.092Z,85.34
2022-07-25T05:10:13.611Z,85.36
2022-07-25T05:11:17.718Z,85.36
2022-07-25T05:12:21.798Z,83.58
2022-07-25T05:13:25.895Z,84.20
2022-07-25T05:14:29.912Z,83.58
2022-07-25T05:15:34.056Z,82.70
2022-07-25T05:16:38.104Z,81.32
2022-07-25T05:17:42.618Z,80.62
2022-07-25T05:18:46.532Z,80.62
2022-07-25T05:19:50.559Z,80.38
2022-07-25T05:20:54.644Z,80.38
2022-07-25T05:21:58.781Z,79.27
2022-07-25T05:23:02.928Z,77.73
2022-07-25T05:24:07.742Z,76.44
2022-07-25T05:25:12.253Z,76.44
2022-07-25T05:26:16.679Z,76.33
2022-07-25T05:27:20.696Z,76.40
2022-07-25T05:28:24.683Z,77.00
2022-07-25T05:29:28.911Z,76.95
2022-07-25T05:30:37.848Z,77.09
2022-07-25T05:31:39.083Z,77.97
2022-07-25T05:32:43.174Z,77.37
2022-07-25T05:33:47.216Z,77.65
2022-07-25T05:34:52.840Z,77.16
2022-07-25T05:35:57.106Z,77.16
2022-07-25T05:37:01.160Z,78.54
2022-07-25T05:38:05.978Z,78.54
2022-07-25T05:39:10.046Z,78.08
2022-07-25T05:40:14.797Z,77.44
2022-07-25T05:41:19.291Z,77.44
2022-07-25T05:42:24.323Z,77.45
2022-07-25T05:43:28.434Z,77.66
2022-07-25T05:44:32.562Z,76.88
2022-07-25T05:45:36.596Z,76.88
2022-07-25T05:46:41.339Z,75.88
2022-07-25T05:47:45.335Z,76.46
2022-07-25T05:48:49.473Z,75.47
2022-07-25T05:49:53.578Z,75.44
2022-07-25T05:50:58.073Z,75.44
2022-07-25T05:52:04.148Z,75.49
2022-07-25T05:53:11.452Z,74.40
2022-07-25T05:54:15.567Z,74.40
2022-07-25T05:55:21.905Z,73.98
2022-07-25T05:56:26.063Z,73.47
2022-07-25T05:57:30.173Z,74.09
2022-07-25T05:58:34.283Z,74.09
2022-07-25T05:59:38.311Z,73.92
2022-07-25T06:00:42.338Z,75.53
2022-07-25T06:01:48.111Z,75.53
2022-07-25T06:02:52.485Z,74.90
2022-07-25T06:03:56.637Z,74.90
2022-07-25T06:05:00.854Z,74.76
2022-07-25T06:06:05.066Z,74.74
2022-07-25T06:07:09.110Z,74.83
2022-07-25T06:08:15.384Z,75.18
2022-07-25T06:09:22.205Z,75.28
2022-07-25T06:10:26.413Z,74.94
2022-07-25T06:11:30.858Z,74.64
2022-07-25T06:12:36.691Z,74.89
2022-07-25T06:13:41.055Z,74.71
2022-07-25T06:14:45.084Z,74.71
2022-07-25T06:15:49.155Z,73.00
2022-07-25T06:16:53.138Z,72.43
2022-07-25T06:17:57.247Z,71.60
2022-07-25T06:19:01.834Z,71.60
2022-07-25T06:20:06.468Z,71.43
2022-07-25T06:21:10.510Z,71.16
2022-07-25T06:22:14.740Z,71.16
2022-07-25T06:23:18.994Z,71.19
2022-07-25T06:24:24.682Z,70.81
2022-07-25T06:25:28.692Z,70.91
2022-07-25T06:26:32.989Z,70.42
2022-07-25T06:27:39.000Z,70.42
2022-07-25T06:28:43.032Z,70.50
2022-07-25T06:29:47.055Z,70.50
2022-07-25T06:30:51.090Z,70.41
2022-07-25T06:31:55.187Z,70.52
2022-07-25T06:32:59.336Z,70.29
2022-07-25T06:34:03.562Z,70.18
2022-07-25T06:35:08.080Z,70.18
2022-07-25T06:36:12.098Z,71.26
2022-07-25T06:37:16.130Z,71.49
2022-07-25T06:38:21.758Z,71.49
2022-07-25T06:39:26.485Z,71.63
2022-07-25T06:40:32.561Z,71.13
2022-07-25T06:41:36.613Z,71.32
2022-07-25T06:42:44.654Z,71.32
2022-07-25T06:43:48.619Z,68.83
2022-07-25T06:44:52.684Z,69.32
2022-07-25T06:45:56.664Z,68.58
2022-07-25T06:47:05.327Z,68.02
2022-07-25T06:48:09.274Z,68.02
2022-07-25T06:49:13.276Z,66.71
2022-07-25T06:50:21.223Z,66.79
2022-07-25T06:51:25.262Z,67.76
2022-07-25T06:52:29.319Z,68.11
2022-07-25T06:53:33.347Z,67.80
2022-07-25T06:54:37.368Z,67.21
2022-07-25T06:55:41.457Z,66.85
2022-07-25T06:56:45.947Z,66.75
2022-07-25T06:57:49.920Z,66.87
2022-07-25T06:58:53.901Z,67.53
2022-07-25T06:59:58.190Z,66.45
2022-07-25T07:01:02.374Z,67.09
2022-07-25T07:02:06.423Z,66.37
2022-07-25T07:03:10.437Z,66.37
2022-07-25T07:04:14.568Z,66.05
2022-07-25T07:05:19.092Z,65.66
2022-07-25T07:06:23.586Z,65.68
2022-07-25T07:07:30.703Z,66.71
2022-07-25T07:08:35.325Z,66.71
2022-07-25T07:09:39.506Z,67.30
2022-07-25T07:10:45.096Z,68.08
2022-07-25T07:11:51.041Z,68.08
2022-07-25T07:13:07.646Z,67.80
2022-07-25T07:14:12.028Z,66.93
2022-07-25T07:15:16.263Z,66.93
2022-07-25T07:16:20.555Z,67.40
2022-07-25T07:17:24.574Z,68.58
2022-07-25T07:18:28.652Z,68.58
2022-07-25T07:19:32.773Z,69.06
2022-07-25T07:20:37.216Z,68.47
2022-07-25T07:21:41.632Z,69.75
2022-07-25T07:22:47.524Z,69.75
2022-07-25T07:23:53.378Z,69.21
2022-07-25T07:24:57.465Z,69.55
2022-07-25T07:26:01.490Z,68.62
2022-07-25T07:27:05.527Z,68.62
2022-07-25T07:28:09.630Z,68.40
2022-07-25T07:29:13.745Z,68.40
2022-07-25T07:30:23.908Z,68.19
2022-07-25T07:31:24.321Z,68.19
2022-07-25T07:32:28.262Z,67.42
2022-07-25T07:33:32.660Z,67.42
2022-07-25T07:34:36.808Z,67.33
2022-07-25T07:35:45.042Z,67.27
2022-07-25T07:36:48.212Z,67.22
2022-07-25T07:37:52.773Z,67.22
2022-07-25T07:38:56.716Z,66.74
2022-07-25T07:40:00.775Z,65.92
2022-07-25T07:41:04.879Z,66.04
2022-07-25T07:42:09.064Z,66.13
2022-07-25T07:43:14.648Z,66.13
2022-07-25T07:44:18.717Z,65.75
2022-07-25T07:45:25.147Z,64.56
2022-07-25T07:46:30.016Z,64.24
2022-07-25T07:47:34.202Z,64.24
2022-07-25T07:48:39.087Z,63.87
2022-07-25T07:49:45.965Z,64.32
2022-07-25T07:50:53.347Z,64.75
2022-07-25T07:51:57.490Z,64.55
2022-07-25T07:53:01.636Z,64.55
2022-07-25T07:54:06.586Z,63.42
2022-07-25T07:55:11.496Z,64.14
2022-07-25T07:56:16.847Z,64.14
2022-07-25T07:57:20.806Z,64.45
2022-07-25T07:58:26.397Z,63.61
2022-07-25T07:59:33.303Z,64.05
2022-07-25T08:00:40.069Z,64.18
2022-07-25T08:01:44.774Z,65.01
2022-07-25T08:02:51.262Z,65.01
2022-07-25T08:03:55.519Z,64.29
2022-07-25T08:04:59.664Z,64.29
2022-07-25T08:06:04.620Z,64.03
2022-07-25T08:07:08.600Z,62.85
2022-07-25T08:08:15.283Z,61.83
2022-07-25T08:09:19.284Z,61.83
2022-07-25T08:10:27.304Z,61.23
2022-07-25T08:11:31.409Z,59.41
2022-07-25T08:12:38.430Z,59.25
2022-07-25T08:13:42.583Z,59.25
2022-07-25T08:14:46.574Z,59.57
2022-07-25T08:15:53.918Z,59.93
2022-07-25T08:16:57.961Z,60.21
2022-07-25T08:18:02.034Z,58.68
2022-07-25T08:19:06.104Z,58.55
2022-07-25T08:20:35.749Z,58.64
2022-07-25T08:21:23.509Z,59.65
2022-07-25T08:23:58.610Z,58.79
2022-07-25T08:25:02.598Z,57.29
2022-07-25T08:26:06.997Z,57.33
2022-07-25T08:27:11.097Z,57.33
2022-07-25T08:28:15.402Z,56.88
2022-07-25T08:29:21.302Z,56.62
2022-07-25T08:30:28.000Z,57.10
2022-07-25T08:31:32.035Z,55.52
2022-07-25T08:32:37.821Z,55.52
2022-07-25T08:33:41.850Z,56.32
2022-07-25T08:34:45.824Z,56.00
2022-07-25T08:35:54.022Z,56.00
2022-07-25T08:36:58.185Z,55.30
2022-07-25T08:38:03.378Z,55.37
2022-07-25T08:39:07.548Z,55.88
2022-07-25T08:40:14.617Z,54.27
2022-07-25T08:41:24.731Z,53.96
2022-07-25T08:42:29.143Z,53.96
2022-07-25T08:43:35.181Z,53.15
2022-07-25T08:44:41.386Z,53.15
2022-07-25T08:45:50.785Z,53.07
2022-07-25T08:46:55.283Z,52.03
2022-07-25T08:47:59.442Z,52.12
2022-07-25T08:49:03.788Z,52.19
2022-07-25T08:50:10.900Z,52.19
2022-07-25T08:51:15.798Z,53.25
2022-07-25T08:52:21.536Z,53.25
2022-07-25T08:53:34.946Z,50.96
2022-07-25T08:54:32.456Z,52.88
2022-07-25T08:55:39.896Z,52.88
2022-07-25T08:56:43.891Z,52.75
2022-07-25T08:57:50.924Z,52.75
2022-07-25T08:58:54.994Z,50.85
2022-07-25T08:59:59.814Z,51.50
2022-07-25T09:01:03.967Z,51.50
2022-07-25T09:02:11.142Z,52.11
2022-07-25T09:03:15.414Z,51.88
2022-07-25T09:04:20.614Z,51.88
2022-07-25T09:05:25.871Z,53.02
2022-07-25T09:06:32.516Z,53.25
2022-07-25T09:07:39.776Z,53.25
2022-07-25T09:08:59.981Z,52.41
2022-07-25T09:10:23.453Z,52.41
2022-07-25T09:11:32.167Z,53.13
2022-07-25T09:12:36.251Z,52.91
2022-07-25T09:13:41.985Z,52.91
2022-07-25T09:14:49.360Z,53.56
2022-07-25T09:15:56.648Z,53.56
2022-07-25T09:17:05.268Z,52.72
2022-07-25T09:18:11.740Z,52.78
2022-07-25T09:19:22.870Z,52.78
2022-07-25T09:20:40.652Z,53.19
2022-07-25T09:21:46.620Z,53.32
2022-07-25T09:22:52.317Z,53.32
2022-07-25T09:23:56.321Z,52.86
2022-07-25T09:25:00.367Z,52.44
2022-07-25T09:26:12.301Z,52.35
2022-07-25T09:27:16.637Z,52.76
2022-07-25T09:28:20.805Z,51.96
2022-07-25T09:29:27.537Z,52.29
2022-07-25T09:30:31.624Z,53.81
2022-07-25T09:31:35.651Z,54.31
2022-07-25T09:32:40.042Z,54.31
2022-07-25T09:33:52.298Z,52.06
2022-07-25T09:34:58.820Z,52.06
2022-07-25T09:36:05.794Z,51.95
2022-07-25T09:37:11.861Z,52.31
2022-07-25T09:38:17.678Z,51.72
2022-07-25T09:39:21.886Z,52.73
2022-07-25T09:40:25.981Z,52.73
2022-07-25T09:41:36.131Z,53.77
2022-07-25T09:42:40.298Z,53.77
2022-07-25T09:43:45.242Z,52.58
2022-07-25T09:45:10.082Z,51.87
2022-07-25T09:46:14.576Z,51.87
2022-07-25T09:47:18.856Z,53.07
2022-07-25T09:48:23.029Z,51.75
2022-07-25T09:49:28.883Z,51.62
2022-07-25T09:50:34.183Z,51.62
2022-07-25T09:51:38.361Z,51.62
2022-07-25T09:52:42.864Z,51.52
2022-07-25T09:53:46.968Z,52.44
2022-07-25T09:54:51.149Z,52.25
2022-07-25T09:55:55.480Z,51.96
2022-07-25T09:56:59.680Z,50.86
2022-07-25T09:58:03.825Z,50.96
2022-07-25T09:59:07.853Z,50.75
2022-07-25T10:00:19.033Z,50.75
2022-07-25T10:01:23.570Z,51.45
2022-07-25T10:02:42.350Z,50.54
2022-07-25T10:03:52.301Z,49.41
2022-07-25T10:05:16.305Z,49.28
2022-07-25T10:06:41.327Z,49.28
2022-07-25T10:07:48.331Z,49.46
2022-07-25T10:08:53.562Z,50.42
2022-07-25T10:09:58.051Z,48.92
2022-07-25T10:11:02.455Z,48.78
2022-07-25T10:12:11.499Z,49.06
2022-07-25T10:13:18.140Z,49.07
2022-07-25T10:14:22.246Z,49.07
2022-07-25T10:15:26.321Z,49.77
2022-07-25T10:16:30.416Z,50.21
2022-07-25T10:17:35.756Z,51.14
2022-07-25T10:18:42.749Z,51.03
2022-07-25T10:19:52.857Z,50.50
2022-07-25T10:20:57.298Z,50.78
2022-07-25T10:22:02.967Z,50.95
2022-07-25T10:23:18.188Z,50.63
2022-07-25T10:24:22.254Z,50.67
2022-07-25T10:25:28.028Z,50.67
2022-07-25T10:26:33.433Z,50.35
2022-07-25T10:27:46.083Z,49.21
2022-07-25T10:28:54.084Z,49.21
2022-07-25T10:29:59.620Z,48.50
2022-07-25T10:31:03.916Z,47.81
2022-07-25T10:32:11.248Z,48.71
2022-07-25T10:33:17.915Z,48.71
2022-07-25T10:34:31.711Z,48.63
2022-07-25T10:35:36.209Z,48.42
2022-07-25T10:36:46.134Z,48.42
2022-07-25T10:37:52.732Z,48.08
2022-07-25T10:39:01.589Z,48.63
2022-07-25T10:40:06.101Z,48.11
2022-07-25T10:41:13.167Z,48.11
2022-07-25T10:42:20.182Z,48.09
2022-07-25T10:43:25.744Z,47.58
2022-07-25T10:44:47.883Z,45.97
2022-07-25T10:45:54.651Z,45.77
2022-07-25T10:47:09.955Z,46.75
2022-07-25T10:48:28.236Z,45.77
2022-07-25T10:49:37.620Z,46.21
2022-07-25T10:50:59.788Z,46.21
2022-07-25T10:52:05.438Z,46.27
2022-07-25T10:53:09.508Z,46.95
2022-07-25T10:54:16.325Z,45.84
2022-07-25T10:55:23.795Z,46.27
2022-07-25T10:56:29.673Z,46.55
2022-07-25T10:57:33.812Z,45.14
2022-07-25T10:58:46.512Z,45.68
2022-07-25T10:59:50.914Z,44.38
2022-07-25T11:00:55.767Z,44.38
2022-07-25T11:02:00.622Z,45.08
2022-07-25T11:03:05.025Z,44.91
2022-07-25T11:04:14.817Z,47.12
2022-07-25T11:05:18.895Z,47.12
2022-07-25T11:06:34.705Z,46.87
2022-07-25T11:07:38.690Z,46.87
2022-07-25T11:08:44.751Z,46.93
2022-07-25T11:09:57.423Z,47.41
2022-07-25T11:11:02.319Z,46.57
2022-07-25T11:12:06.577Z,45.32
2022-07-25T11:13:12.998Z,45.22
2022-07-25T11:14:25.819Z,45.16
2022-07-25T11:15:30.028Z,45.98
2022-07-25T11:16:35.567Z,45.98
2022-07-25T11:17:41.247Z,46.08
2022-07-25T11:18:45.192Z,46.29
2022-07-25T11:19:58.215Z,46.29
2022-07-25T11:21:06.494Z,45.88
2022-07-25T11:22:09.525Z,46.06
2022-07-25T11:23:16.546Z,46.04
2022-07-25T11:24:20.608Z,46.04
2022-07-25T11:25:26.198Z,44.83
2022-07-25T11:26:30.297Z,45.60
2022-07-25T11:27:34.913Z,46.49
2022-07-25T11:28:47.388Z,46.49
2022-07-25T11:29:51.636Z,46.53
2022-07-25T11:31:00.266Z,45.72
2022-07-25T11:32:09.737Z,45.72
2022-07-25T11:33:17.531Z,45.47
2022-07-25T11:34:23.477Z,44.46
2022-07-25T11:35:30.298Z,44.46
2022-07-25T11:36:36.077Z,43.61
2022-07-25T11:37:41.987Z,44.11
2022-07-25T11:38:48.475Z,43.07
2022-07-25T11:39:52.996Z,43.04
2022-07-25T11:40:57.415Z,43.04
2022-07-25T11:42:07.461Z,44.49
2022-07-25T11:43:22.940Z,44.49
2022-07-25T11:44:35.450Z,43.70
2022-07-25T11:45:39.475Z,43.54
2022-07-25T11:46:44.867Z,43.95
2022-07-25T11:48:05.652Z,45.22
2022-07-25T11:49:10.296Z,45.22
2022-07-25T11:50:14.945Z,45.02
2022-07-25T11:51:19.861Z,44.14
2022-07-25T11:52:32.630Z,44.84
2022-07-25T11:53:41.705Z,44.84
2022-07-25T11:54:52.981Z,45.24
2022-07-25T11:55:57.028Z,46.40
2022-07-25T11:57:01.023Z,46.40
2022-07-25T11:58:06.277Z,45.92
2022-07-25T11:59:11.168Z,45.90
2022-07-25T12:00:20.743Z,46.06
2022-07-25T12:01:25.175Z,46.06
2022-07-25T12:02:34.086Z,46.29
2022-07-25T12:03:39.329Z,46.18
2022-07-25T12:04:46.343Z,46.18
2022-07-25T12:05:50.652Z,46.39
2022-07-25T12:06:57.674Z,46.39
2022-07-25T12:08:12.513Z,45.92
2022-07-25T12:09:19.512Z,45.46
2022-07-25T12:10:26.875Z,45.97
2022-07-25T12:11:30.938Z,46.26
2022-07-25T12:12:55.745Z,45.20
2022-07-25T12:14:04.568Z,45.57
2022-07-25T12:15:13.398Z,45.57
2022-07-25T12:16:17.991Z,45.01
2022-07-25T12:17:22.044Z,45.76
2022-07-25T12:18:26.755Z,45.76
2022-07-25T12:19:30.757Z,45.60
2022-07-25T12:20:37.397Z,44.98
2022-07-25T12:21:41.620Z,45.65
2022-07-25T12:22:46.156Z,45.65
2022-07-25T12:23:50.223Z,43.52
2022-07-25T12:24:54.645Z,43.49
2022-07-25T12:25:58.625Z,42.76
2022-07-25T12:27:02.721Z,42.76
2022-07-25T12:28:07.167Z,42.42
2022-07-25T12:29:11.232Z,42.42
2022-07-25T12:30:16.929Z,42.89
2022-07-25T12:31:21.134Z,43.28
2022-07-25T12:32:25.086Z,43.28
2022-07-25T12:33:29.150Z,43.06
2022-07-25T12:34:33.193Z,42.83
2022-07-25T12:35:37.496Z,42.83
2022-07-25T12:36:41.738Z,43.43
2022-07-25T12:37:45.863Z,42.71
2022-07-25T12:38:49.983Z,42.73
2022-07-25T12:39:54.755Z,41.96
2022-07-25T12:40:58.884Z,42.29
2022-07-25T12:42:03.121Z,42.29
2022-07-25T12:43:07.273Z,41.79
2022-07-25T12:44:11.315Z,42.96
2022-07-25T12:45:16.321Z,42.96
2022-07-25T12:46:22.003Z,43.43
2022-07-25T12:47:28.039Z,43.45
2022-07-25T12:48:32.473Z,44.12
2022-07-25T12:49:36.564Z,44.60
2022-07-25T12:50:40.705Z,44.17
2022-07-25T12:51:44.775Z,43.82
2022-07-25T12:52:48.898Z,43.82
2022-07-25T12:53:52.921Z,44.10
2022-07-25T12:54:57.053Z,44.13
2022-07-25T12:56:01.197Z,43.26
2022-07-25T12:57:05.529Z,42.43
2022-07-25T12:58:09.674Z,42.47
2022-07-25T12:59:13.890Z,42.97
2022-07-25T13:00:22.763Z,42.68
2022-07-25T13:01:26.891Z,41.65
2022-07-25T13:02:32.883Z,41.65
2022-07-25T13:03:36.644Z,41.90
2022-07-25T13:04:40.888Z,41.44
2022-07-25T13:05:45.044Z,41.44
2022-07-25T13:06:49.258Z,42.45
2022-07-25T13:07:53.579Z,42.11
2022-07-25T13:08:58.301Z,43.14
2022-07-25T13:10:03.188Z,44.23
2022-07-25T13:11:07.203Z,44.23
2022-07-25T13:12:16.162Z,44.42
2022-07-25T13:13:16.995Z,44.42
2022-07-25T13:14:21.575Z,44.26
2022-07-25T13:15:26.867Z,43.65
2022-07-25T13:16:31.222Z,43.65
2022-07-25T13:17:35.557Z,43.69
2022-07-25T13:18:39.590Z,43.29
2022-07-25T13:19:43.760Z,43.80
2022-07-25T13:20:49.950Z,43.41
2022-07-25T13:21:54.133Z,42.80
2022-07-25T13:22:58.846Z,42.83
2022-07-25T13:24:03.327Z,42.89
2022-07-25T13:25:07.719Z,42.89
2022-07-25T13:26:11.956Z,44.15
2022-07-25T13:27:17.762Z,44.29
2022-07-25T13:28:21.887Z,44.29
2022-07-25T13:29:25.804Z,43.99
2022-07-25T13:30:29.871Z,44.36
2022-07-25T13:31:43.364Z,46.13
2022-07-25T13:32:49.627Z,46.10
2022-07-25T13:33:54.028Z,46.10
2022-07-25T13:34:58.066Z,46.79
2022-07-25T13:36:02.190Z,46.79
2022-07-25T13:37:06.409Z,46.83
2022-07-25T13:38:11.708Z,47.37
2022-07-25T13:39:16.883Z,46.86
2022-07-25T13:40:21.411Z,46.86
2022-07-25T13:41:26.209Z,47.21
2022-07-25T13:42:30.574Z,47.40
2022-07-25T13:43:37.059Z,47.40
2022-07-25T13:44:41.062Z,46.78
2022-07-25T13:45:46.040Z,47.78
2022-07-25T13:46:50.167Z,47.87
2022-07-25T13:48:12.270Z,46.37
2022-07-25T13:49:01.429Z,46.25
2022-07-25T13:50:05.917Z,46.13
2022-07-25T13:51:09.952Z,47.22
2022-07-25T13:52:14.070Z,47.22
2022-07-25T13:53:18.173Z,46.89
2022-07-25T13:54:22.228Z,46.71
2022-07-25T13:55:27.283Z,47.08
2022-07-25T13:56:32.286Z,47.73
2022-07-25T13:57:36.365Z,47.73
2022-07-25T13:58:41.022Z,47.41
2022-07-25T13:59:46.681Z,47.27
2022-07-25T14:00:50.813Z,47.97
2022-07-25T14:01:54.892Z,47.97
2022-07-25T14:02:58.958Z,47.78
2022-07-25T14:04:02.994Z,46.75
2022-07-25T14:05:07.372Z,47.10
2022-07-25T14:06:11.879Z,47.10
2022-07-25T14:07:17.510Z,46.65